Terminal Aerodrome Forecast
Issued by NWS Springfield, MO

Home | Current Version | Previous Version | Text Only | Print | Product List | Glossary On
Versions: 1 2 3 4 5 6 7 8 9 10 11 12 13 14 15 16 17 18 19 20
221
FTUS43 KSGF 291138
TAFSGF
TAF
KSGF 291138Z 2912/3012 07012KT P6SM BKN200
     FM291400 08013KT 6SM -SHRA BKN060 OVC100
     FM291800 10012KT P6SM OVC025
     FM292000 10013KT P6SM OVC015
     FM300000 10013KT 5SM -SHRA BR VCTS OVC008CB
     FM300400 14015G22KT 3SM -SHRA BR VCTS OVC005CB=

USA.gov is the U.S. government's official web portal to all federal, state and local government web resources and services.